createdAt,value
2018-06-21T00:01:09.711Z,18.31
2018-06-21T00:02:09.661Z,18.33
2018-06-21T00:04:02.459Z,18.28
2018-06-21T00:05:02.343Z,18.28
2018-06-21T00:06:55.195Z,18.33
2018-06-21T00:07:55.102Z,18.26
2018-06-21T00:09:47.988Z,18.21
2018-06-21T00:10:47.839Z,18.15
2018-06-21T00:12:41.140Z,18.06
2018-06-21T00:13:41.008Z,18.01
2018-06-21T00:15:34.476Z,18.02
2018-06-21T00:16:33.754Z,18.01
2018-06-21T00:18:26.670Z,17.97
2018-06-21T00:19:26.580Z,17.99
2018-06-21T00:21:19.404Z,17.99
2018-06-21T00:22:19.339Z,17.99
2018-06-21T00:24:12.263Z,17.93
2018-06-21T00:25:12.023Z,17.94
2018-06-21T00:27:06.175Z,17.94
2018-06-21T00:28:05.691Z,17.86
2018-06-21T00:29:58.523Z,17.93
2018-06-21T00:30:58.467Z,17.96
2018-06-21T00:32:51.311Z,17.87
2018-06-21T00:33:51.178Z,17.90
2018-06-21T00:35:43.973Z,17.93
2018-06-21T00:36:43.895Z,17.86
2018-06-21T00:38:36.733Z,17.90
2018-06-21T00:39:36.618Z,17.96
2018-06-21T00:41:29.469Z,17.88
2018-06-21T00:42:29.397Z,17.78
2018-06-21T00:44:22.213Z,17.69
2018-06-21T00:45:22.147Z,17.69
2018-06-21T00:47:14.972Z,17.73
2018-06-21T00:48:14.965Z,17.72
2018-06-21T00:50:07.790Z,17.66
2018-06-21T00:51:07.637Z,17.59
2018-06-21T00:53:00.532Z,17.53
2018-06-21T00:54:00.385Z,17.54
2018-06-21T00:55:54.222Z,17.56
2018-06-21T00:56:53.122Z,17.69
2018-06-21T00:58:45.970Z,17.63
2018-06-21T00:59:45.889Z,17.68
2018-06-21T01:01:38.731Z,17.72
2018-06-21T01:02:38.641Z,17.71
2018-06-21T01:04:31.465Z,17.65
2018-06-21T01:05:31.371Z,17.65
2018-06-21T01:07:24.248Z,17.72
2018-06-21T01:08:24.126Z,17.54
2018-06-21T01:10:16.975Z,17.57
2018-06-21T01:11:16.863Z,17.59
2018-06-21T01:13:10.229Z,17.56
2018-06-21T01:14:09.619Z,17.53
2018-06-21T01:16:02.512Z,17.59
2018-06-21T01:17:02.368Z,17.56
2018-06-21T01:18:55.275Z,17.53
2018-06-21T01:19:55.109Z,17.56
2018-06-21T01:21:47.954Z,17.72
2018-06-21T01:22:47.861Z,17.59
2018-06-21T01:24:40.743Z,17.53
2018-06-21T01:25:40.607Z,17.53
2018-06-21T01:27:33.474Z,17.54
2018-06-21T01:28:33.363Z,17.52
2018-06-21T01:30:26.221Z,17.57
2018-06-21T01:31:26.124Z,17.49
2018-06-21T01:33:18.865Z,17.59
2018-06-21T01:34:18.768Z,17.53
2018-06-21T01:36:11.625Z,17.63
2018-06-21T01:37:11.505Z,17.59
2018-06-21T01:39:04.273Z,17.54
2018-06-21T01:40:04.160Z,17.50
2018-06-21T01:41:57.033Z,17.52
2018-06-21T01:42:56.939Z,17.54
2018-06-21T01:44:49.801Z,17.50
2018-06-21T01:45:49.648Z,17.56
2018-06-21T01:47:42.510Z,17.54
2018-06-21T01:48:42.421Z,17.47
2018-06-21T01:50:35.246Z,17.52
2018-06-21T01:51:35.172Z,17.49
2018-06-21T01:53:28.018Z,17.41
2018-06-21T01:54:27.908Z,17.37
2018-06-21T01:56:20.771Z,17.38
2018-06-21T01:57:20.647Z,17.43
2018-06-21T01:59:13.517Z,17.34
2018-06-21T02:00:13.321Z,17.31
2018-06-21T02:02:06.164Z,17.27
2018-06-21T02:03:06.052Z,17.35
2018-06-21T02:04:58.924Z,17.25
2018-06-21T02:05:58.864Z,17.20
2018-06-21T02:07:51.677Z,17.09
2018-06-21T02:08:51.635Z,17.12
2018-06-21T02:10:44.453Z,17.12
2018-06-21T02:11:44.369Z,17.01
2018-06-21T02:13:37.190Z,16.99
2018-06-21T02:14:37.126Z,17.10
2018-06-21T02:16:29.912Z,16.97
2018-06-21T02:17:29.808Z,16.95
2018-06-21T02:19:22.641Z,16.90
2018-06-21T02:20:22.546Z,16.92
2018-06-21T02:22:16.870Z,16.88
2018-06-21T02:23:16.760Z,16.80
2018-06-21T02:25:09.651Z,16.88
2018-06-21T02:26:09.482Z,16.87
2018-06-21T02:28:02.319Z,16.80
2018-06-21T02:29:02.220Z,16.80
2018-06-21T02:30:55.101Z,16.91
2018-06-21T02:31:54.985Z,16.82
2018-06-21T02:33:47.750Z,16.70
2018-06-21T02:34:47.659Z,16.76
2018-06-21T02:36:40.493Z,16.74
2018-06-21T02:37:40.369Z,16.76
2018-06-21T02:39:33.166Z,16.70
2018-06-21T02:40:33.061Z,16.76
2018-06-21T02:42:25.877Z,16.74
2018-06-21T02:43:25.786Z,16.83
2018-06-21T02:45:19.163Z,16.88
2018-06-21T02:46:18.437Z,16.90
2018-06-21T02:48:11.278Z,16.97
2018-06-21T02:49:11.167Z,16.94
2018-06-21T02:51:03.916Z,16.94
2018-06-21T02:52:03.829Z,17.02
2018-06-21T02:53:56.667Z,16.94
2018-06-21T02:54:56.567Z,16.91
2018-06-21T02:56:49.479Z,16.88
2018-06-21T02:57:49.230Z,17.01
2018-06-21T02:59:43.095Z,17.01
2018-06-21T03:00:42.388Z,17.02
2018-06-21T03:02:35.252Z,17.01
2018-06-21T03:03:35.169Z,17.07
2018-06-21T03:05:28.029Z,17.37
2018-06-21T03:06:27.842Z,17.49
2018-06-21T03:08:20.773Z,17.54
2018-06-21T03:09:20.628Z,17.65
2018-06-21T03:11:13.881Z,17.86
2018-06-21T03:12:13.812Z,17.88
2018-06-21T03:14:06.662Z,17.93
2018-06-21T03:15:06.590Z,17.84
2018-06-21T03:16:59.393Z,18.09
2018-06-21T03:17:59.275Z,18.11
2018-06-21T03:19:52.822Z,18.11
2018-06-21T03:20:52.438Z,18.11
2018-06-21T03:22:46.522Z,18.05
2018-06-21T03:23:44.832Z,18.02
2018-06-21T03:25:38.116Z,18.11
2018-06-21T03:26:38.082Z,18.03
2018-06-21T03:28:30.866Z,17.97
2018-06-21T03:29:30.786Z,17.97
2018-06-21T03:31:23.546Z,17.94
2018-06-21T03:32:23.454Z,17.97
2018-06-21T03:34:16.326Z,17.86
2018-06-21T03:35:16.215Z,17.84
2018-06-21T03:37:09.025Z,17.94
2018-06-21T03:38:08.947Z,17.96
2018-06-21T03:40:01.791Z,18.11
2018-06-21T03:41:01.696Z,18.24
2018-06-21T03:42:55.051Z,18.33
2018-06-21T03:43:54.447Z,18.42
2018-06-21T03:45:47.298Z,18.52
2018-06-21T03:46:47.186Z,18.60
2018-06-21T03:48:39.938Z,18.79
2018-06-21T03:49:39.833Z,18.83
2018-06-21T03:51:32.707Z,18.81
2018-06-21T03:52:32.635Z,18.89
2018-06-21T03:54:25.983Z,18.75
2018-06-21T03:55:25.785Z,18.79
2018-06-21T03:57:18.640Z,18.88
2018-06-21T03:58:18.490Z,18.88
2018-06-21T04:00:11.245Z,19.04
2018-06-21T04:01:11.158Z,19.09
2018-06-21T04:03:04.174Z,19.19
2018-06-21T04:04:04.013Z,19.24
2018-06-21T04:05:56.953Z,19.32
2018-06-21T04:06:56.891Z,19.30
2018-06-21T04:08:49.807Z,19.39
2018-06-21T04:09:49.754Z,19.52
2018-06-21T04:11:43.109Z,19.59
2018-06-21T04:12:42.574Z,19.67
2018-06-21T04:14:35.908Z,19.74
2018-06-21T04:15:35.398Z,19.81
2018-06-21T04:17:28.507Z,19.75
2018-06-21T04:18:28.282Z,19.74
2018-06-21T04:20:21.545Z,19.79
2018-06-21T04:21:21.422Z,19.81
2018-06-21T04:23:14.329Z,19.78
2018-06-21T04:24:14.178Z,19.84
2018-06-21T04:26:07.000Z,19.92
2018-06-21T04:27:06.924Z,19.94
2018-06-21T04:28:59.766Z,20.05
2018-06-21T04:29:59.673Z,20.05
2018-06-21T04:31:53.038Z,20.22
2018-06-21T04:32:52.423Z,20.33
2018-06-21T04:34:45.283Z,20.41
2018-06-21T04:35:45.168Z,20.50
2018-06-21T04:37:38.021Z,20.58
2018-06-21T04:38:37.956Z,20.65
2018-06-21T04:40:30.794Z,20.68
2018-06-21T04:41:30.676Z,20.68
2018-06-21T04:43:24.027Z,20.74
2018-06-21T04:44:23.435Z,20.75
2018-06-21T04:46:16.658Z,20.77
2018-06-21T04:47:16.583Z,20.89
2018-06-21T04:49:09.435Z,21.04
2018-06-21T04:50:09.326Z,20.95
2018-06-21T04:52:02.728Z,21.04
2018-06-21T04:53:02.080Z,21.11
2018-06-21T04:54:54.949Z,21.18
2018-06-21T04:55:54.826Z,21.11
2018-06-21T04:57:48.183Z,21.13
2018-06-21T04:58:47.581Z,21.16
2018-06-21T05:00:40.416Z,21.13
2018-06-21T05:01:40.308Z,21.29
2018-06-21T05:03:33.689Z,21.38
2018-06-21T05:04:33.053Z,21.40
2018-06-21T05:06:25.956Z,21.38
2018-06-21T05:07:25.812Z,21.43
2018-06-21T05:09:18.714Z,21.58
2018-06-21T05:10:18.557Z,21.55
2018-06-21T05:12:11.950Z,21.58
2018-06-21T05:13:11.332Z,21.59
2018-06-21T05:15:04.153Z,21.67
2018-06-21T05:16:04.101Z,21.67
2018-06-21T05:17:56.945Z,21.73
2018-06-21T05:18:56.815Z,21.78
2018-06-21T05:20:49.675Z,21.71
2018-06-21T05:21:49.578Z,21.77
2018-06-21T05:23:42.434Z,21.78
2018-06-21T05:24:42.321Z,21.88
2018-06-21T05:26:35.710Z,21.94
2018-06-21T05:27:35.064Z,21.80
2018-06-21T05:29:27.904Z,21.81
2018-06-21T05:30:27.824Z,21.71
2018-06-21T05:32:20.657Z,21.75
2018-06-21T05:33:20.548Z,21.74
2018-06-21T05:35:13.437Z,21.63
2018-06-21T05:36:13.306Z,21.65
2018-06-21T05:38:10.360Z,21.66
2018-06-21T05:39:10.086Z,21.58
2018-06-21T05:41:03.915Z,21.47
2018-06-21T05:42:03.836Z,21.43
2018-06-21T05:43:56.668Z,21.45
2018-06-21T05:44:56.612Z,21.38
2018-06-21T05:46:49.420Z,21.38
2018-06-21T05:47:49.334Z,21.41
2018-06-21T05:49:42.200Z,21.43
2018-06-21T05:50:42.073Z,21.44
2018-06-21T05:52:34.917Z,21.45
2018-06-21T05:53:34.825Z,21.51
2018-06-21T05:55:27.667Z,21.41
2018-06-21T05:56:27.566Z,21.45
2018-06-21T05:58:20.429Z,21.50
2018-06-21T05:59:20.348Z,21.53
2018-06-21T06:01:14.628Z,21.66
2018-06-21T06:02:14.507Z,21.69
2018-06-21T06:04:07.383Z,21.67
2018-06-21T06:05:07.255Z,21.77
2018-06-21T06:07:00.086Z,21.74
2018-06-21T06:07:59.998Z,21.94
2018-06-21T06:09:52.848Z,21.91
2018-06-21T06:10:52.773Z,21.75
2018-06-21T06:12:45.580Z,21.82
2018-06-21T06:13:45.492Z,21.88
2018-06-21T06:15:38.376Z,21.82
2018-06-21T06:16:38.247Z,21.93
2018-06-21T06:18:31.649Z,22.06
2018-06-21T06:19:31.498Z,21.97
2018-06-21T06:21:24.360Z,22.04
2018-06-21T06:22:24.278Z,22.16
2018-06-21T06:24:17.627Z,22.18
2018-06-21T06:25:17.512Z,22.18
2018-06-21T06:27:10.887Z,22.38
2018-06-21T06:28:10.273Z,22.43
2018-06-21T06:30:03.127Z,22.41
2018-06-21T06:31:03.016Z,22.44
2018-06-21T06:32:55.863Z,22.49
2018-06-21T06:33:55.766Z,22.51
2018-06-21T06:35:49.556Z,22.66
2018-06-21T06:36:49.436Z,22.70
2018-06-21T06:38:42.283Z,22.86
2018-06-21T06:39:42.181Z,22.93
2018-06-21T06:41:35.034Z,22.93
2018-06-21T06:42:34.952Z,22.98
2018-06-21T06:44:27.796Z,23.08
2018-06-21T06:45:27.686Z,23.01
2018-06-21T06:47:20.578Z,22.96
2018-06-21T06:48:20.449Z,22.96
2018-06-21T06:50:13.292Z,22.85
2018-06-21T06:51:13.194Z,22.77
2018-06-21T06:53:06.038Z,22.85
2018-06-21T06:54:05.946Z,22.85
2018-06-21T06:55:58.784Z,22.85
2018-06-21T06:56:58.695Z,22.88
2018-06-21T06:58:51.516Z,23.07
2018-06-21T06:59:51.444Z,23.08
2018-06-21T07:01:44.289Z,23.04
2018-06-21T07:02:44.180Z,23.13
2018-06-21T07:04:37.057Z,23.11
2018-06-21T07:05:36.943Z,23.18
2018-06-21T07:07:29.788Z,23.26
2018-06-21T07:08:29.757Z,23.34
2018-06-21T07:10:23.048Z,23.21
2018-06-21T07:11:22.986Z,23.18
2018-06-21T07:13:15.851Z,23.14
2018-06-21T07:14:15.715Z,23.13
2018-06-21T07:16:08.549Z,23.14
2018-06-21T07:17:08.456Z,23.23
2018-06-21T07:19:01.809Z,23.06
2018-06-21T07:20:01.709Z,22.98
2018-06-21T07:21:54.579Z,23.26
2018-06-21T07:22:54.477Z,23.41
2018-06-21T07:24:47.296Z,23.37
2018-06-21T07:25:47.238Z,23.42
2018-06-21T07:27:40.575Z,23.33
2018-06-21T07:28:40.474Z,23.23
2018-06-21T07:30:33.462Z,23.01
2018-06-21T07:31:33.211Z,22.98
2018-06-21T07:33:26.627Z,23.06
2018-06-21T07:34:26.496Z,23.07
2018-06-21T07:36:19.345Z,22.92
2018-06-21T07:37:19.239Z,23.10
2018-06-21T07:39:12.470Z,23.17
2018-06-21T07:40:12.393Z,23.11
2018-06-21T07:42:06.778Z,23.29
2018-06-21T07:43:06.664Z,23.17
2018-06-21T07:45:00.025Z,23.41
2018-06-21T07:45:59.928Z,23.56
2018-06-21T07:47:54.350Z,23.39
2018-06-21T07:48:54.211Z,23.42
2018-06-21T07:50:54.537Z,23.48
2018-06-21T07:51:54.442Z,23.41
2018-06-21T07:53:47.818Z,23.61
2018-06-21T07:54:47.703Z,23.48
2018-06-21T07:56:40.545Z,23.42
2018-06-21T07:57:40.458Z,23.39
2018-06-21T07:59:33.324Z,23.41
2018-06-21T08:00:33.201Z,23.45
2018-06-21T08:02:26.046Z,23.41
2018-06-21T08:03:25.973Z,23.54
2018-06-21T08:05:18.813Z,23.59
2018-06-21T08:06:18.699Z,23.64
2018-06-21T08:08:11.566Z,23.64
2018-06-21T08:09:11.564Z,23.67
2018-06-21T08:11:04.309Z,23.85
2018-06-21T08:12:04.228Z,23.92
2018-06-21T08:13:57.059Z,24.11
2018-06-21T08:14:56.955Z,24.03
2018-06-21T08:16:49.790Z,24.04
2018-06-21T08:17:49.715Z,24.15
2018-06-21T08:19:42.559Z,23.96
2018-06-21T08:20:42.458Z,23.94
2018-06-21T08:22:35.295Z,23.78
2018-06-21T08:23:35.336Z,23.78
2018-06-21T08:25:28.100Z,23.74
2018-06-21T08:26:27.979Z,23.74
2018-06-21T08:28:20.833Z,23.66
2018-06-21T08:29:20.728Z,23.54
2018-06-21T08:31:13.535Z,23.56
2018-06-21T08:32:13.470Z,23.64
2018-06-21T08:34:06.300Z,23.64
2018-06-21T08:35:06.212Z,23.66
2018-06-21T08:36:59.041Z,23.42
2018-06-21T08:37:58.958Z,23.39
2018-06-21T08:39:51.807Z,23.07
2018-06-21T08:40:51.697Z,22.81
2018-06-21T08:42:44.550Z,22.77
2018-06-21T08:43:44.464Z,22.73
2018-06-21T08:45:37.311Z,22.53
2018-06-21T08:46:37.205Z,22.36
2018-06-21T08:48:30.041Z,22.31
2018-06-21T08:49:29.953Z,22.19
2018-06-21T08:51:22.822Z,22.19
2018-06-21T08:52:22.696Z,22.13
2018-06-21T08:54:15.532Z,21.90
2018-06-21T08:55:15.454Z,20.32
2018-06-21T08:57:08.299Z,18.18
2018-06-21T08:58:08.207Z,17.47
2018-06-21T09:00:01.065Z,16.70
2018-06-21T09:01:00.936Z,16.40
2018-06-21T09:02:53.779Z,15.99
2018-06-21T09:03:53.749Z,15.78
2018-06-21T09:05:46.582Z,15.78
2018-06-21T09:06:46.449Z,15.59
2018-06-21T09:08:39.278Z,15.44
2018-06-21T09:09:39.218Z,15.56
2018-06-21T09:11:32.064Z,15.38
2018-06-21T09:12:31.946Z,15.35
2018-06-21T09:14:24.784Z,15.35
2018-06-21T09:15:24.748Z,15.19
2018-06-21T09:17:17.537Z,14.97
2018-06-21T09:18:17.439Z,14.90
2018-06-21T09:20:10.299Z,15.03
2018-06-21T09:21:10.270Z,15.03
2018-06-21T09:23:03.027Z,14.89
2018-06-21T09:24:02.934Z,14.85
2018-06-21T09:25:55.835Z,14.86
2018-06-21T09:26:55.694Z,14.86
2018-06-21T09:28:48.537Z,14.86
2018-06-21T09:29:48.431Z,14.82
2018-06-21T09:31:41.298Z,14.58
2018-06-21T09:32:41.184Z,14.58
2018-06-21T09:34:33.939Z,14.56
2018-06-21T09:35:33.836Z,14.64
2018-06-21T09:37:26.589Z,14.46
2018-06-21T09:38:26.486Z,14.53
2018-06-21T09:40:19.327Z,14.52
2018-06-21T09:41:19.236Z,14.45
2018-06-21T09:43:12.090Z,14.44
2018-06-21T09:44:11.973Z,14.40
2018-06-21T09:46:04.784Z,14.22
2018-06-21T09:47:04.700Z,14.26
2018-06-21T09:48:57.389Z,14.21
2018-06-21T09:49:57.290Z,14.18
2018-06-21T09:51:50.119Z,14.05
2018-06-21T09:52:50.023Z,14.12
2018-06-21T09:54:42.898Z,14.08
2018-06-21T09:55:42.773Z,14.13
2018-06-21T09:57:35.631Z,14.11
2018-06-21T09:58:35.511Z,14.11
2018-06-21T10:00:28.259Z,14.15
2018-06-21T10:01:28.186Z,14.16
2018-06-21T10:03:21.037Z,14.19
2018-06-21T10:04:20.927Z,14.27
2018-06-21T10:06:14.261Z,14.33
2018-06-21T10:07:14.067Z,14.36
2018-06-21T10:09:06.941Z,14.23
2018-06-21T10:10:06.838Z,14.38
2018-06-21T10:11:59.602Z,14.36
2018-06-21T10:12:59.465Z,14.28
2018-06-21T10:14:52.262Z,14.21
2018-06-21T10:15:52.148Z,14.37
2018-06-21T10:17:44.969Z,14.46
2018-06-21T10:18:44.882Z,14.63
2018-06-21T10:20:37.665Z,14.78
2018-06-21T10:21:37.514Z,14.78
2018-06-21T10:23:30.268Z,15.01
2018-06-21T10:24:30.229Z,14.93
2018-06-21T10:26:22.928Z,15.08
2018-06-21T10:27:22.811Z,15.23
2018-06-21T10:29:15.593Z,15.17
2018-06-21T10:30:15.460Z,15.15
2018-06-21T10:32:09.302Z,15.29
2018-06-21T10:33:09.133Z,15.22
2018-06-21T10:35:01.998Z,15.10
2018-06-21T10:36:01.877Z,15.20
2018-06-21T10:37:54.739Z,15.29
2018-06-21T10:38:54.626Z,15.47
2018-06-21T10:40:47.388Z,15.50
2018-06-21T10:41:47.280Z,15.63
2018-06-21T10:43:40.005Z,15.73
2018-06-21T10:44:39.922Z,15.66
2018-06-21T10:46:32.785Z,15.63
2018-06-21T10:47:32.587Z,15.81
2018-06-21T10:49:25.442Z,15.91
2018-06-21T10:50:25.235Z,15.98
2018-06-21T10:52:18.017Z,16.24
2018-06-21T10:53:17.867Z,16.37
2018-06-21T10:55:10.608Z,16.59
2018-06-21T10:56:10.511Z,16.70
2018-06-21T10:58:03.266Z,16.90
2018-06-21T10:59:03.172Z,16.97
2018-06-21T11:00:55.895Z,16.99
2018-06-21T11:01:55.805Z,17.06
2018-06-21T11:03:48.584Z,17.50
2018-06-21T11:04:48.455Z,17.54
2018-06-21T11:06:41.323Z,17.75
2018-06-21T11:07:41.211Z,17.69
2018-06-21T11:09:34.062Z,17.72
2018-06-21T11:10:34.042Z,17.75
2018-06-21T11:12:26.799Z,17.91
2018-06-21T11:13:26.692Z,17.93
2018-06-21T11:15:19.547Z,18.33
2018-06-21T11:16:19.450Z,18.46
2018-06-21T11:18:13.235Z,18.64
2018-06-21T11:19:13.138Z,18.54
2018-06-21T11:21:06.370Z,18.56
2018-06-21T11:22:06.288Z,18.33
2018-06-21T11:23:59.142Z,17.91
2018-06-21T11:24:59.040Z,17.96
2018-06-21T11:26:51.897Z,17.96
2018-06-21T11:27:51.783Z,17.81
2018-06-21T11:29:44.625Z,17.53
2018-06-21T11:30:44.524Z,17.54
2018-06-21T11:32:37.284Z,17.39
2018-06-21T11:33:37.179Z,17.47
2018-06-21T11:35:30.020Z,17.53
2018-06-21T11:36:29.933Z,17.56
2018-06-21T11:38:23.196Z,17.69
2018-06-21T11:39:23.101Z,17.73
2018-06-21T11:41:15.917Z,17.84
2018-06-21T11:42:15.838Z,17.81
2018-06-21T11:44:08.690Z,18.01
2018-06-21T11:45:08.494Z,18.11
2018-06-21T11:47:01.364Z,18.43
2018-06-21T11:48:01.237Z,18.67
2018-06-21T11:49:54.075Z,19.05
2018-06-21T11:50:53.977Z,19.12
2018-06-21T11:52:46.854Z,19.54
2018-06-21T11:53:46.751Z,19.52
2018-06-21T11:55:39.573Z,19.39
2018-06-21T11:56:39.512Z,19.26
2018-06-21T11:58:32.337Z,18.82
2018-06-21T11:59:32.224Z,18.68
2018-06-21T12:01:25.491Z,17.86
2018-06-21T12:02:25.407Z,17.27
2018-06-21T12:04:18.246Z,16.76
2018-06-21T12:05:18.134Z,16.64
2018-06-21T12:07:11.026Z,16.24
2018-06-21T12:08:10.903Z,15.98
2018-06-21T12:10:03.741Z,15.87
2018-06-21T12:11:03.631Z,15.96
2018-06-21T12:12:56.470Z,15.81
2018-06-21T12:13:56.398Z,15.78
2018-06-21T12:15:49.165Z,15.78
2018-06-21T12:16:49.043Z,15.87
2018-06-21T12:18:42.318Z,15.85
2018-06-21T12:19:42.200Z,16.03
2018-06-21T12:21:35.602Z,16.08
2018-06-21T12:22:35.454Z,16.00
2018-06-21T12:24:29.265Z,16.08
2018-06-21T12:25:29.138Z,16.09
2018-06-21T12:27:22.381Z,16.39
2018-06-21T12:28:22.299Z,16.49
2018-06-21T12:30:15.605Z,16.43
2018-06-21T12:31:15.460Z,16.65
2018-06-21T12:33:08.497Z,16.94
2018-06-21T12:34:08.105Z,17.28
2018-06-21T12:36:02.025Z,17.65
2018-06-21T12:37:01.856Z,17.50
2018-06-21T12:38:54.618Z,17.57
2018-06-21T12:39:54.530Z,17.75
2018-06-21T12:41:47.380Z,17.81
2018-06-21T12:42:47.772Z,17.72
2018-06-21T12:44:40.109Z,17.56
2018-06-21T12:45:40.007Z,17.30
2018-06-21T12:47:32.779Z,17.28
2018-06-21T12:48:32.666Z,17.17
2018-06-21T12:50:26.044Z,16.91
2018-06-21T12:51:25.407Z,16.79
2018-06-21T12:53:18.275Z,16.43
2018-06-21T12:54:18.156Z,16.39
2018-06-21T12:56:10.899Z,16.91
2018-06-21T12:57:10.803Z,17.04
2018-06-21T12:59:03.660Z,17.25
2018-06-21T13:00:03.555Z,17.45
2018-06-21T13:01:56.832Z,17.87
2018-06-21T13:02:56.723Z,17.75
2018-06-21T13:04:49.558Z,18.17
2018-06-21T13:05:49.463Z,18.36
2018-06-21T13:07:42.226Z,18.31
2018-06-21T13:08:42.111Z,18.27
2018-06-21T13:10:35.369Z,18.34
2018-06-21T13:11:35.284Z,18.70
2018-06-21T13:13:28.117Z,18.89
2018-06-21T13:14:28.018Z,19.05
2018-06-21T13:16:23.836Z,18.88
2018-06-21T13:17:23.813Z,18.82
2018-06-21T13:19:17.103Z,18.93
2018-06-21T13:20:16.997Z,18.58
2018-06-21T13:22:11.306Z,18.33
2018-06-21T13:23:11.205Z,18.20
2018-06-21T13:25:05.634Z,18.33
2018-06-21T13:26:05.492Z,18.56
2018-06-21T13:27:58.812Z,18.70
2018-06-21T13:28:58.650Z,18.79
2018-06-21T13:30:51.497Z,18.79
2018-06-21T13:31:51.377Z,18.88
2018-06-21T13:33:44.241Z,19.17
2018-06-21T13:34:44.156Z,19.17
2018-06-21T13:36:36.992Z,19.07
2018-06-21T13:37:36.920Z,19.31
2018-06-21T13:39:29.740Z,19.60
2018-06-21T13:40:29.623Z,19.72
2018-06-21T13:42:22.500Z,19.63
2018-06-21T13:43:22.373Z,19.67
2018-06-21T13:45:15.146Z,19.92
2018-06-21T13:46:15.052Z,20.07
2018-06-21T13:48:07.857Z,20.27
2018-06-21T13:49:07.772Z,20.17
2018-06-21T13:51:00.628Z,20.26
2018-06-21T13:52:00.516Z,20.67
2018-06-21T13:53:53.351Z,20.64
2018-06-21T13:54:53.277Z,20.17
2018-06-21T13:56:46.145Z,19.27
2018-06-21T13:57:46.033Z,18.74
2018-06-21T13:59:42.080Z,18.79
2018-06-21T14:00:41.807Z,18.54
2018-06-21T14:02:35.647Z,18.11
2018-06-21T14:03:35.523Z,18.11
2018-06-21T14:05:28.376Z,18.38
2018-06-21T14:06:28.339Z,18.20
2018-06-21T14:08:21.228Z,18.06
2018-06-21T14:09:21.060Z,18.08
2018-06-21T14:11:13.876Z,17.52
2018-06-21T14:12:13.759Z,17.19
2018-06-21T14:14:06.595Z,17.50
2018-06-21T14:15:06.412Z,17.65
2018-06-21T14:16:59.294Z,17.94
2018-06-21T14:17:59.186Z,18.23
2018-06-21T14:19:52.053Z,18.54
2018-06-21T14:20:51.952Z,18.71
2018-06-21T14:22:44.747Z,18.88
2018-06-21T14:23:44.651Z,18.98
2018-06-21T14:25:38.051Z,19.24
2018-06-21T14:26:37.413Z,19.35
2018-06-21T14:28:30.779Z,19.37
2018-06-21T14:29:30.156Z,19.22
2018-06-21T14:31:23.040Z,19.37
2018-06-21T14:32:22.960Z,19.05
2018-06-21T14:34:16.289Z,19.09
2018-06-21T14:35:16.212Z,18.85
2018-06-21T14:37:09.042Z,18.83
2018-06-21T14:38:08.967Z,19.01
2018-06-21T14:40:01.800Z,19.59
2018-06-21T14:41:01.690Z,19.79
2018-06-21T14:42:54.528Z,20.17
2018-06-21T14:43:54.448Z,20.05
2018-06-21T14:45:47.263Z,19.38
2018-06-21T14:46:47.163Z,19.20
2018-06-21T14:48:39.943Z,18.54
2018-06-21T14:49:39.810Z,18.42
2018-06-21T14:51:32.662Z,18.11
2018-06-21T14:52:32.587Z,18.09
2018-06-21T14:54:25.442Z,18.48
2018-06-21T14:55:25.329Z,18.81
2018-06-21T14:57:18.263Z,19.07
2018-06-21T14:58:18.180Z,19.39
2018-06-21T15:00:11.015Z,19.44
2018-06-21T15:01:10.925Z,19.37
2018-06-21T15:03:03.760Z,19.52
2018-06-21T15:04:03.659Z,19.41
2018-06-21T15:05:56.512Z,18.97
2018-06-21T15:06:56.411Z,18.67
2018-06-21T15:08:49.407Z,18.18
2018-06-21T15:09:49.292Z,18.36
2018-06-21T15:11:42.124Z,18.18
2018-06-21T15:12:42.022Z,18.34
2018-06-21T15:14:34.935Z,18.15
2018-06-21T15:15:34.783Z,18.21
2018-06-21T15:17:27.817Z,17.97
2018-06-21T15:18:27.666Z,17.76
2018-06-21T15:20:20.456Z,17.63
2018-06-21T15:21:20.361Z,17.43
2018-06-21T15:23:21.712Z,17.56
2018-06-21T15:26:10.556Z,18.85
2018-06-21T15:27:10.268Z,19.39
2018-06-21T15:29:03.154Z,20.12
2018-06-21T15:30:03.015Z,20.63
2018-06-21T15:31:55.895Z,20.18
2018-06-21T15:32:55.846Z,20.14
2018-06-21T15:34:48.758Z,18.76
2018-06-21T15:35:48.568Z,19.00
2018-06-21T15:37:41.369Z,20.30
2018-06-21T15:38:41.265Z,20.60
2018-06-21T15:40:34.154Z,20.86
2018-06-21T15:41:34.013Z,21.28
2018-06-21T15:43:26.887Z,21.56
2018-06-21T15:44:26.771Z,21.20
2018-06-21T15:46:19.639Z,20.86
2018-06-21T15:47:19.520Z,21.10
2018-06-21T15:49:12.394Z,21.35
2018-06-21T15:50:12.282Z,21.16
2018-06-21T15:52:05.101Z,20.05
2018-06-21T15:53:05.033Z,19.74
2018-06-21T15:54:59.141Z,20.18
2018-06-21T15:55:59.047Z,20.71
2018-06-21T15:57:52.896Z,21.62
2018-06-21T15:58:52.168Z,21.77
2018-06-21T16:00:45.232Z,20.32
2018-06-21T16:01:45.125Z,20.26
2018-06-21T16:03:37.983Z,20.42
2018-06-21T16:04:37.853Z,20.89
2018-06-21T16:06:31.228Z,20.71
2018-06-21T16:07:30.606Z,20.22
2018-06-21T16:09:23.979Z,19.84
2018-06-21T16:10:23.874Z,19.35
2018-06-21T16:12:17.141Z,20.93
2018-06-21T16:13:17.039Z,21.41
2018-06-21T16:15:10.015Z,21.63
2018-06-21T16:16:10.008Z,20.39
2018-06-21T16:18:02.846Z,19.41
2018-06-21T16:19:02.756Z,19.30
2018-06-21T16:20:56.084Z,21.10
2018-06-21T16:21:55.613Z,21.28
2018-06-21T16:23:48.449Z,21.98
2018-06-21T16:24:48.344Z,21.93
2018-06-21T16:26:42.099Z,22.44
2018-06-21T16:27:42.010Z,21.53
2018-06-21T16:29:36.417Z,21.00
2018-06-21T16:30:36.265Z,21.56
2018-06-21T16:32:29.130Z,21.41
2018-06-21T16:33:29.079Z,22.27
2018-06-21T16:35:22.004Z,22.61
2018-06-21T16:36:21.922Z,22.78
2018-06-21T16:38:15.778Z,22.36
2018-06-21T16:39:15.661Z,22.74
2018-06-21T16:41:08.603Z,21.41
2018-06-21T16:42:08.531Z,20.95
2018-06-21T16:44:01.483Z,19.94
2018-06-21T16:45:01.391Z,19.49
2018-06-21T16:46:55.730Z,18.78
2018-06-21T16:47:55.148Z,18.58
2018-06-21T16:49:48.560Z,18.23
2018-06-21T16:50:48.395Z,18.24
2018-06-21T16:52:41.354Z,18.23
2018-06-21T16:53:42.167Z,19.50
2018-06-21T16:55:34.241Z,19.19
2018-06-21T16:56:34.103Z,18.88
2018-06-21T16:58:27.062Z,18.11
2018-06-21T16:59:26.950Z,17.83
2018-06-21T17:01:19.900Z,17.39
2018-06-21T17:02:19.816Z,17.41
2018-06-21T17:04:12.778Z,17.10
2018-06-21T17:05:12.656Z,17.07
2018-06-21T17:07:05.604Z,17.04
2018-06-21T17:08:05.519Z,17.12
2018-06-21T17:09:58.496Z,16.77
2018-06-21T17:10:58.398Z,16.70
2018-06-21T17:12:51.365Z,16.62
2018-06-21T17:13:51.248Z,16.55
2018-06-21T17:15:44.159Z,16.61
2018-06-21T17:16:44.088Z,16.40
2018-06-21T17:18:37.062Z,16.25
2018-06-21T17:19:36.956Z,16.73
2018-06-21T17:21:29.873Z,18.56
2018-06-21T17:22:29.768Z,18.96
2018-06-21T17:24:22.742Z,19.92
2018-06-21T17:25:22.624Z,20.74
2018-06-21T17:27:16.495Z,20.65
2018-06-21T17:28:16.398Z,21.07
2018-06-21T17:30:09.395Z,20.61
2018-06-21T17:31:09.246Z,20.41
2018-06-21T17:33:02.239Z,20.29
2018-06-21T17:34:02.132Z,20.07
2018-06-21T17:35:55.096Z,18.57
2018-06-21T17:36:54.967Z,18.20
2018-06-21T17:38:47.937Z,17.32
2018-06-21T17:39:47.816Z,17.02
2018-06-21T17:41:40.771Z,16.58
2018-06-21T17:42:40.660Z,16.69
2018-06-21T17:44:33.609Z,16.33
2018-06-21T17:45:33.509Z,16.06
2018-06-21T17:47:26.466Z,16.03
2018-06-21T17:48:26.361Z,16.05
2018-06-21T17:50:19.343Z,16.16
2018-06-21T17:51:19.222Z,16.18
2018-06-21T17:53:12.182Z,16.02
2018-06-21T17:54:12.093Z,16.13
2018-06-21T17:56:05.042Z,16.03
2018-06-21T17:57:04.919Z,15.87
2018-06-21T17:58:57.862Z,15.87
2018-06-21T17:59:57.775Z,15.83
2018-06-21T18:01:50.739Z,15.66
2018-06-21T18:02:50.628Z,15.98
2018-06-21T18:04:43.607Z,16.57
2018-06-21T18:05:43.498Z,16.36
2018-06-21T18:07:39.413Z,16.10
2018-06-21T18:08:38.695Z,15.84
2018-06-21T18:10:31.669Z,15.73
2018-06-21T18:11:31.544Z,15.59
2018-06-21T18:13:24.503Z,15.47
2018-06-21T18:14:24.401Z,15.43
2018-06-21T18:16:17.338Z,15.43
2018-06-21T18:17:17.253Z,15.32
2018-06-21T18:19:10.186Z,15.26
2018-06-21T18:20:10.109Z,15.35
2018-06-21T18:22:03.063Z,15.44
2018-06-21T18:23:02.959Z,15.30
2018-06-21T18:24:55.907Z,15.22
2018-06-21T18:25:55.813Z,15.29
2018-06-21T18:27:49.162Z,15.25
2018-06-21T18:28:48.722Z,15.20
2018-06-21T18:30:41.593Z,15.10
2018-06-21T18:31:41.404Z,15.01
2018-06-21T18:33:35.815Z,15.01
2018-06-21T18:34:34.156Z,15.07